Saturday, October 25, 2014, 2:56 PM EDT

KRIC, Richmond International Airport

Location: Sandston, VA, United States Lat: 37.517
Local Time: 2:56 PM EDT (18:56 GMT) Lon: -77.317
Time Zone: US/Eastern Elev: 167 ft

Show me the last for .
Show Decoded

2014-10-25 13:54 METAR KRIC 251754Z 25008KT 10SM CLR 22/01 A2989 RMK AO2 SLP127 T02220006 10222
                 20050 58036 =
2014-10-25 12:54 METAR KRIC 251654Z 22006KT 10SM CLR 21/05 A2993 RMK AO2 SLP140 T02060050 =
2014-10-25 11:54 METAR KRIC 251554Z 25003KT 10SM CLR 18/04 A2997 RMK AO2 SLP155 T01830044 =
2014-10-25 10:54 METAR KRIC 251454Z 25004KT 10SM CLR 16/06 A3000 RMK AO2 SLP164 T01610056 51006 =
2014-10-25 09:54 METAR KRIC 251354Z 00000KT 10SM CLR 12/07 A3000 RMK AO2 SLP163 T01220067 =
2014-10-25 08:54 METAR KRIC 251254Z 00000KT 10SM CLR 09/06 A2999 =
2014-10-25 07:54 METAR KRIC 251154Z 00000KT 10SM CLR 06/03 A2998 =
2014-10-25 06:54 METAR KRIC 251054Z 00000KT 10SM CLR 06/04 A2998 RMK AO2 SLP156 T00560039 =
2014-10-25 05:54 METAR KRIC 250954Z 00000KT 10SM CLR 06/04 A2997 RMK AO2 SLP154 T00610039 =
2014-10-25 04:54 METAR KRIC 250854Z 00000KT 10SM CLR 06/04 A2997 RMK AO2 SLP152 T00610039 53001 =
2014-10-25 03:54 METAR KRIC 250754Z 00000KT 10SM CLR 07/04 A2996 RMK AO2 SLP150 T00670044 =
2014-10-25 02:54 METAR KRIC 250654Z 00000KT 10SM CLR 07/05 A2996 RMK AO2 SLP150 T00670050 =
2014-10-25 01:54 METAR KRIC 250554Z 00000KT 10SM FEW300 08/06 A2996 RMK AO2 SLP151 T00830061
                 10122 20083 51002 =
2014-10-25 00:54 METAR KRIC 250454Z 00000KT 10SM FEW300 08/06 A2996 RMK AO2 SLP151 T00830061
                 402170083 =
2014-10-24 23:54 METAR KRIC 250354Z 00000KT 10SM FEW300 09/07 A2996 =
2014-10-24 22:54 METAR KRIC 250254Z 00000KT 10SM FEW300 10/07 A2996 =
2014-10-24 21:54 METAR KRIC 250154Z 00000KT 10SM SCT300 11/07 A2995 RMK AO2 SLP147 T01110067 =
2014-10-24 20:54 METAR KRIC 250054Z 00000KT 10SM FEW220 BKN300 11/07 A2995 RMK AO2 SLP146
                 T01060067 =
2014-10-24 19:54 METAR KRIC 242354Z 00000KT 10SM FEW220 BKN300 12/07 A2995 RMK AO2 SLP145
                 T01220067 10217 20111 53007 =
2014-10-24 18:54 METAR KRIC 242254Z 00000KT 10SM SCT220 BKN300 14/07 A2994 RMK AO2 SLP142
                 T01440067 =
2014-10-24 17:54 METAR KRIC 242154Z 32003KT 10SM SCT220 BKN300 19/04 A2993 RMK AO2 SLP139
                 T01890039 =
2014-10-24 16:54 METAR KRIC 242054Z 31007KT 10SM SCT200 BKN300 21/04 A2993 RMK AO2 SLP138
                 T02060039 56009 =
2014-10-24 15:54 METAR KRIC 241954Z 29009KT 10SM BKN250 21/04 A2993 RMK AO2 SLP140 T02110039 =

Support USWX by starting your Amazon purchase here.